Time;durP1;ratioP1;P1;durP2;ratioP2;P2;SDS_P1;SDS_P2;PMS_P1;PMS_P2;Temp;Humidity;BMP_temperature;BMP_pressure;BME280_temperature;BME280_humidity;BME280_pressure;Samples;Min_cycle;Max_cycle;Signal;HPM_P1;HPM_P2
2022/08/22 00:00:25;;;;;;;14.68;13.18;;;;;;;;;;5073750;28;20474;-74
2022/08/22 00:03:00;;;;;;;14.63;13.20;;;;;;;;;;5072552;28;20021;-75
2022/08/22 00:05:36;;;;;;;15.38;13.43;;;;;;;;;;5071355;28;20028;-73
2022/08/22 00:08:11;;;;;;;14.80;13.18;;;;;;;;;;5068563;28;20069;-73
2022/08/22 00:10:55;;;;;;;14.88;12.63;;;;;;;;;;5063573;28;20025;-74
2022/08/22 00:13:32;;;;;;;12.82;11.63;;;;;;;;;;5060459;28;20035;-73
2022/08/22 00:16:01;;;;;;;14.18;12.65;;;;;;;;;;5060246;28;20029;-74
2022/08/22 00:18:34;;;;;;;14.07;12.20;;;;;;;;;;5073828;28;20024;-74
2022/08/22 00:21:08;;;;;;;15.52;12.77;;;;;;;;;;5072381;28;20036;-73
2022/08/22 00:23:34;;;;;;;15.35;12.30;;;;;;;;;;5084388;28;20477;-74
2022/08/22 00:26:06;;;;;;;14.10;12.68;;;;;;;;;;5072493;28;20056;-74
2022/08/22 00:28:40;;;;;;;15.20;12.60;;;;;;;;;;5071306;28;20381;-73
2022/08/22 00:31:08;;;;;;;16.17;14.02;;;;;;;;;;5071409;28;20084;-73
2022/08/22 00:33:44;;;;;;;16.88;12.95;;;;;;;;;;5080375;28;20504;-74
2022/08/22 00:36:25;;;;;;;13.48;12.13;;;;;;;;;;5073965;28;20717;-74
2022/08/22 00:39:02;;;;;;;16.58;13.10;;;;;;;;;;5070951;28;20031;-74
2022/08/22 00:41:29;;;;;;;15.88;13.98;;;;;;;;;;5066369;28;20035;-73
2022/08/22 00:44:01;;;;;;;14.88;13.27;;;;;;;;;;5072485;28;20086;-74
2022/08/22 00:46:39;;;;;;;14.70;13.23;;;;;;;;;;5071286;28;20052;-73
2022/08/22 00:49:05;;;;;;;15.38;13.07;;;;;;;;;;5069922;28;20030;-74
2022/08/22 00:51:50;;;;;;;16.45;14.18;;;;;;;;;;5057683;28;20036;-74
2022/08/22 00:54:34;;;;;;;15.10;13.52;;;;;;;;;;5055376;28;20021;-75
2022/08/22 00:57:23;;;;;;;16.65;15.05;;;;;;;;;;5067203;28;20027;-73
2022/08/22 00:59:52;;;;;;;15.60;14.02;;;;;;;;;;5055828;28;20053;-74
2022/08/22 01:02:37;;;;;;;15.75;14.00;;;;;;;;;;5070687;28;20508;-73
2022/08/22 01:05:12;;;;;;;16.90;14.18;;;;;;;;;;5072440;28;20500;-74
2022/08/22 01:07:57;;;;;;;15.80;14.13;;;;;;;;;;5071723;28;20035;-74
2022/08/22 01:10:29;;;;;;;13.68;12.27;;;;;;;;;;5072636;28;20474;-74
2022/08/22 01:13:14;;;;;;;12.43;11.13;;;;;;;;;;5071154;28;20036;-74
2022/08/22 01:15:41;;;;;;;11.35;10.25;;;;;;;;;;5072057;28;20028;-73
2022/08/22 01:18:13;;;;;;;11.38;10.20;;;;;;;;;;5066946;28;20501;-74
2022/08/22 01:20:48;;;;;;;11.95;10.75;;;;;;;;;;5065882;28;20032;-73
2022/08/22 01:23:33;;;;;;;11.80;10.63;;;;;;;;;;5068936;28;20024;-74
2022/08/22 01:26:08;;;;;;;13.75;11.45;;;;;;;;;;5071194;28;20021;-73
2022/08/22 01:28:53;;;;;;;12.10;10.88;;;;;;;;;;5071157;28;20032;-74
2022/08/22 01:31:28;;;;;;;12.23;10.93;;;;;;;;;;5065510;28;20040;-74
2022/08/22 01:34:03;;;;;;;12.40;11.10;;;;;;;;;;5067534;28;20024;-73
2022/08/22 01:36:29;;;;;;;12.75;11.07;;;;;;;;;;5071877;28;20029;-73
2022/08/22 01:39:02;;;;;;;12.20;10.55;;;;;;;;;;5071770;28;20450;-74
2022/08/22 01:41:46;;;;;;;11.30;10.20;;;;;;;;;;5072953;28;20028;-74
2022/08/22 01:44:23;;;;;;;14.07;10.45;;;;;;;;;;5065487;28;20027;-73
2022/08/22 01:47:08;;;;;;;11.82;10.52;;;;;;;;;;5070608;28;20028;-73
2022/08/22 01:49:34;;;;;;;10.90;9.80;;;;;;;;;;5071607;28;20031;-73
2022/08/22 01:52:09;;;;;;;11.50;9.98;;;;;;;;;;5070173;28;20040;-73
2022/08/22 01:54:35;;;;;;;10.77;9.63;;;;;;;;;;5070606;28;20031;-75
2022/08/22 01:57:03;;;;;;;10.50;9.43;;;;;;;;;;5069206;28;20127;-74
2022/08/22 01:59:35;;;;;;;13.43;10.50;;;;;;;;;;5071392;28;20582;-74
2022/08/22 02:02:04;;;;;;;10.27;9.27;;;;;;;;;;5068970;28;20424;-73
2022/08/22 02:04:49;;;;;;;12.43;9.85;;;;;;;;;;5066117;28;20025;-73
2022/08/22 02:07:15;;;;;;;10.82;9.73;;;;;;;;;;5071053;28;20036;-74
2022/08/22 02:09:44;;;;;;;10.70;9.50;;;;;;;;;;5070630;28;20024;-74
2022/08/22 02:12:29;;;;;;;12.07;10.32;;;;;;;;;;5065211;28;20089;-74
2022/08/22 02:15:05;;;;;;;11.35;10.15;;;;;;;;;;5075696;28;20029;-74
2022/08/22 02:17:32;;;;;;;11.75;10.45;;;;;;;;;;5074582;28;20033;-73
2022/08/22 02:20:09;;;;;;;10.90;9.80;;;;;;;;;;5064623;28;20474;-74
2022/08/22 02:22:44;;;;;;;10.90;9.32;;;;;;;;;;5073772;28;20024;-73
2022/08/22 02:25:14;;;;;;;11.55;9.73;;;;;;;;;;5075122;28;20069;-73
2022/08/22 02:27:43;;;;;;;9.98;8.98;;;;;;;;;;5074677;28;20048;-73
2022/08/22 02:30:13;;;;;;;9.93;8.70;;;;;;;;;;5074977;28;20436;-73
2022/08/22 02:32:42;;;;;;;9.63;8.40;;;;;;;;;;5073635;28;20488;-74
2022/08/22 02:35:17;;;;;;;8.50;7.70;;;;;;;;;;5073170;28;20029;-73
2022/08/22 02:38:05;;;;;;;8.13;7.30;;;;;;;;;;5074580;28;20074;-73
2022/08/22 02:40:34;;;;;;;8.77;7.63;;;;;;;;;;5074309;28;20027;-75
2022/08/22 02:43:19;;;;;;;7.68;6.97;;;;;;;;;;5074121;28;20016;-74
2022/08/22 02:45:54;;;;;;;9.25;7.10;;;;;;;;;;5074652;28;20035;-74
2022/08/22 02:48:33;;;;;;;8.77;6.78;;;;;;;;;;5073747;28;20060;-73
2022/08/22 02:50:59;;;;;;;6.90;6.20;;;;;;;;;;5057955;28;20359;-74
2022/08/22 02:53:45;;;;;;;6.15;5.55;;;;;;;;;;5063359;28;20091;-72
2022/08/22 02:56:25;;;;;;;6.20;5.60;;;;;;;;;;5066498;28;20112;-73
2022/08/22 02:59:18;;;;;;;6.40;5.70;;;;;;;;;;5071708;28;20534;-74
2022/08/22 03:01:46;;;;;;;7.95;5.97;;;;;;;;;;5011954;28;20165;-74
2022/08/22 03:04:20;;;;;;;7.03;5.53;;;;;;;;;;5010774;28;20041;-74
2022/08/22 03:07:05;;;;;;;6.63;5.93;;;;;;;;;;5011177;28;20547;-73
2022/08/22 03:09:36;;;;;;;7.03;6.30;;;;;;;;;;5012007;28;20084;-73
2022/08/22 03:12:31;;;;;;;6.88;5.93;;;;;;;;;;5011852;28;20121;-73
2022/08/22 03:15:09;;;;;;;8.32;6.20;;;;;;;;;;4998043;28;20047;-75
2022/08/22 03:17:39;;;;;;;6.97;6.28;;;;;;;;;;5011103;28;20511;-73
2022/08/22 03:20:12;;;;;;;7.38;6.53;;;;;;;;;;5011372;28;20049;-73
2022/08/22 03:22:48;;;;;;;11.13;7.15;;;;;;;;;;5010547;28;20026;-74
2022/08/22 03:25:19;;;;;;;9.82;6.43;;;;;;;;;;5012317;28;20034;-74
2022/08/22 03:27:51;;;;;;;6.93;5.80;;;;;;;;;;5010576;28;20034;-74
2022/08/22 03:30:20;;;;;;;6.40;5.65;;;;;;;;;;5010636;28;20064;-74
2022/08/22 03:32:49;;;;;;;6.63;5.43;;;;;;;;;;5011895;28;20042;-74
2022/08/22 03:35:35;;;;;;;7.28;5.70;;;;;;;;;;5011654;28;20022;-73
2022/08/22 03:38:18;;;;;;;6.40;5.10;;;;;;;;;;5022819;28;20082;-74
2022/08/22 03:40:53;;;;;;;6.38;5.30;;;;;;;;;;5070505;28;20036;-74
2022/08/22 03:43:22;;;;;;;5.43;4.93;;;;;;;;;;5067790;28;20063;-73
2022/08/22 03:46:07;;;;;;;7.15;5.50;;;;;;;;;;5060389;28;20484;-73
2022/08/22 03:48:52;;;;;;;6.22;5.25;;;;;;;;;;5072441;28;20032;-73
2022/08/22 03:51:27;;;;;;;5.97;5.30;;;;;;;;;;5055421;28;20029;-75
2022/08/22 03:54:14;;;;;;;5.55;4.95;;;;;;;;;;5068074;28;20044;-74
2022/08/22 03:56:58;;;;;;;5.30;4.60;;;;;;;;;;5011592;28;20507;-72
2022/08/22 03:59:36;;;;;;;5.60;4.68;;;;;;;;;;5009446;28;20104;-73
2022/08/22 04:02:21;;;;;;;5.55;4.55;;;;;;;;;;5009806;28;20427;-73
2022/08/22 04:05:05;;;;;;;7.38;5.20;;;;;;;;;;5011157;28;20029;-74
2022/08/22 04:07:49;;;;;;;7.10;5.05;;;;;;;;;;5011286;28;20076;-73
2022/08/22 04:10:25;;;;;;;9.35;5.35;;;;;;;;;;5009947;28;20058;-72
2022/08/22 04:13:09;;;;;;;6.47;5.10;;;;;;;;;;5009137;28;20038;-74
2022/08/22 04:15:46;;;;;;;5.53;4.65;;;;;;;;;;5011541;28;20075;-73
2022/08/22 04:18:30;;;;;;;6.18;4.88;;;;;;;;;;5009926;28;20045;-73
2022/08/22 04:21:13;;;;;;;7.30;5.50;;;;;;;;;;5004793;28;20874;-72
2022/08/22 04:23:39;;;;;;;6.00;4.82;;;;;;;;;;5009857;28;20029;-73
2022/08/22 04:26:09;;;;;;;6.00;5.13;;;;;;;;;;5010799;28;20034;-74
2022/08/22 04:28:37;;;;;;;8.57;5.28;;;;;;;;;;5009048;28;20034;-73
2022/08/22 04:31:06;;;;;;;6.45;4.82;;;;;;;;;;5007942;28;20092;-73
2022/08/22 04:33:38;;;;;;;6.80;5.00;;;;;;;;;;5028060;28;20039;-74
2022/08/22 04:36:26;;;;;;;6.90;5.32;;;;;;;;;;5060440;28;20044;-73
2022/08/22 04:38:52;;;;;;;9.75;5.85;;;;;;;;;;5060121;28;20111;-75
2022/08/22 04:41:23;;;;;;;7.68;5.20;;;;;;;;;;5061475;28;20028;-75
2022/08/22 04:43:56;;;;;;;5.80;5.10;;;;;;;;;;5066892;28;20046;-84
2022/08/22 04:46:32;;;;;;;7.32;5.00;;;;;;;;;;5060282;28;20020;-78
2022/08/22 04:49:04;;;;;;;8.23;5.30;;;;;;;;;;5062262;28;20079;-71
2022/08/22 04:51:40;;;;;;;6.00;4.90;;;;;;;;;;5071106;28;20024;-72
2022/08/22 04:54:13;;;;;;;8.43;4.75;;;;;;;;;;5070919;28;20033;-72
2022/08/22 04:56:52;;;;;;;6.18;5.07;;;;;;;;;;5063832;28;20454;-74
2022/08/22 04:59:18;;;;;;;7.18;4.63;;;;;;;;;;5070507;28;20055;-74
2022/08/22 05:01:46;;;;;;;5.68;4.60;;;;;;;;;;5071060;28;20055;-75
2022/08/22 05:04:15;;;;;;;6.93;5.25;;;;;;;;;;5062455;28;20020;-78
2022/08/22 05:06:43;;;;;;;6.30;4.60;;;;;;;;;;5065802;28;20028;-84
2022/08/22 05:09:12;;;;;;;7.88;4.93;;;;;;;;;;5071519;28;20021;-84
2022/08/22 05:11:39;;;;;;;10.13;5.00;;;;;;;;;;5074569;28;20490;-82
2022/08/22 05:14:08;;;;;;;5.25;4.55;;;;;;;;;;5074734;28;20036;-79
2022/08/22 05:16:38;;;;;;;5.10;4.45;;;;;;;;;;5070505;28;20032;-89
2022/08/22 05:19:16;;;;;;;7.13;4.82;;;;;;;;;;5065948;28;20028;-73
2022/08/22 05:21:43;;;;;;;6.93;4.47;;;;;;;;;;5071810;28;20028;-74
2022/08/22 05:24:18;;;;;;;6.32;4.20;;;;;;;;;;5075007;28;20557;-76
2022/08/22 05:26:47;;;;;;;6.43;4.38;;;;;;;;;;5070970;28;20226;-73
2022/08/22 05:29:16;;;;;;;6.55;4.30;;;;;;;;;;5072421;28;20055;-75
2022/08/22 05:31:48;;;;;;;6.32;4.68;;;;;;;;;;5071077;28;20033;-73
2022/08/22 05:34:17;;;;;;;8.32;4.45;;;;;;;;;;5072008;28;20082;-75
2022/08/22 05:36:46;;;;;;;6.53;4.80;;;;;;;;;;5071339;28;20025;-72
2022/08/22 05:39:13;;;;;;;8.50;4.75;;;;;;;;;;5069269;28;20504;-74
2022/08/22 05:41:40;;;;;;;6.53;4.50;;;;;;;;;;5075528;28;20095;-78
2022/08/22 05:44:13;;;;;;;6.57;4.25;;;;;;;;;;5078188;28;20028;-91
2022/08/22 05:47:15;;;;;;;7.25;4.57;;;;;;;;;;5074043;28;20376;-79
2022/08/22 05:50:01;;;;;;;6.13;4.45;;;;;;;;;;5004399;28;20040;-85
2022/08/22 05:52:27;;;;;;;6.22;4.10;;;;;;;;;;5022032;28;20049;-74
2022/08/22 05:54:59;;;;;;;6.90;4.53;;;;;;;;;;5026267;28;20084;-76
2022/08/22 05:57:28;;;;;;;5.57;4.22;;;;;;;;;;5029128;28;20034;-78
2022/08/22 05:59:59;;;;;;;6.72;4.10;;;;;;;;;;5029630;28;20125;-83
2022/08/22 06:02:34;;;;;;;7.53;4.10;;;;;;;;;;5017752;28;20064;-85
2022/08/22 06:05:01;;;;;;;6.20;4.00;;;;;;;;;;5030461;28;20070;-80
2022/08/22 06:07:34;;;;;;;5.47;4.20;;;;;;;;;;5004726;28;20092;-76
2022/08/22 06:10:18;;;;;;;6.95;4.25;;;;;;;;;;5023115;28;20109;-82
2022/08/22 06:13:05;;;;;;;6.45;4.05;;;;;;;;;;5007583;28;20045;-83
2022/08/22 06:15:39;;;;;;;4.60;3.15;;;;;;;;;;5027068;28;20033;-77
2022/08/22 06:18:10;;;;;;;6.10;3.17;;;;;;;;;;5014160;28;20064;-79
2022/08/22 06:20:44;;;;;;;5.13;3.55;;;;;;;;;;5001384;28;20026;-80
2022/08/22 06:23:14;;;;;;;5.38;3.40;;;;;;;;;;5040793;28;20041;-77
2022/08/22 06:25:44;;;;;;;4.00;3.30;;;;;;;;;;5072457;28;20032;-83
2022/08/22 06:28:12;;;;;;;4.03;3.30;;;;;;;;;;5072464;28;20033;-87
2022/08/22 06:30:39;;;;;;;6.35;3.70;;;;;;;;;;5075523;28;20383;-80
2022/08/22 06:33:11;;;;;;;3.83;3.33;;;;;;;;;;5074566;28;20389;-79
2022/08/22 06:38:29;;;;;;;5.50;3.63;;;;;;;;;;5064890;28;20043;-75
2022/08/22 06:40:56;;;;;;;6.68;3.47;;;;;;;;;;5059719;28;20025;-75
2022/08/22 06:43:25;;;;;;;4.68;3.42;;;;;;;;;;5058645;28;20020;-76
2022/08/22 06:45:52;;;;;;;4.32;3.40;;;;;;;;;;5079226;28;20107;-74
2022/08/22 06:48:20;;;;;;;3.60;3.20;;;;;;;;;;5059257;28;20113;-70
2022/08/22 06:50:49;;;;;;;4.13;3.28;;;;;;;;;;5068372;28;20021;-85
2022/08/22 06:53:15;;;;;;;6.07;3.95;;;;;;;;;;5062137;28;20045;-84
2022/08/22 06:55:44;;;;;;;4.05;3.33;;;;;;;;;;5054475;28;20025;-74
2022/08/22 06:58:17;;;;;;;3.65;3.08;;;;;;;;;;5055331;28;20021;-83
2022/08/22 07:00:44;;;;;;;6.50;3.00;;;;;;;;;;5068578;28;20369;-73
2022/08/22 07:03:14;;;;;;;5.10;3.22;;;;;;;;;;5067226;28;20028;-74
2022/08/22 07:05:42;;;;;;;5.07;3.10;;;;;;;;;;5068190;28;20074;-74
2022/08/22 07:08:18;;;;;;;3.83;2.90;;;;;;;;;;5066290;28;20099;-76
2022/08/22 07:10:47;;;;;;;4.72;3.17;;;;;;;;;;5070050;28;20478;-75
2022/08/22 07:13:15;;;;;;;4.22;3.20;;;;;;;;;;5074169;28;20036;-70
2022/08/22 07:15:42;;;;;;;3.55;2.90;;;;;;;;;;5069448;28;20041;-84
2022/08/22 07:18:17;;;;;;;3.70;3.30;;;;;;;;;;5071015;28;20040;-78
2022/08/22 07:20:47;;;;;;;4.32;2.97;;;;;;;;;;5074027;28;20035;-77
2022/08/22 07:23:23;;;;;;;5.82;3.47;;;;;;;;;;5077402;28;20020;-71
2022/08/22 07:25:56;;;;;;;3.72;3.28;;;;;;;;;;5077261;28;20029;-75
2022/08/22 07:28:36;;;;;;;4.13;3.33;;;;;;;;;;5073262;28;20144;-73
2022/08/22 07:31:07;;;;;;;4.47;3.10;;;;;;;;;;5070587;28;20036;-75
2022/08/22 07:33:42;;;;;;;3.92;2.97;;;;;;;;;;5059647;28;20032;-76
2022/08/22 07:36:29;;;;;;;4.68;3.00;;;;;;;;;;5061562;28;20024;-73
2022/08/22 07:39:12;;;;;;;5.13;2.78;;;;;;;;;;5088989;28;20033;-77
2022/08/22 07:41:46;;;;;;;5.93;3.40;;;;;;;;;;5072518;28;20416;-73
2022/08/22 07:44:21;;;;;;;4.55;3.42;;;;;;;;;;5073201;28;20031;-76
2022/08/22 07:46:55;;;;;;;5.32;3.38;;;;;;;;;;5067196;28;20149;-73
2022/08/22 07:49:23;;;;;;;3.40;3.00;;;;;;;;;;5073248;28;20047;-76
2022/08/22 07:51:52;;;;;;;6.93;3.00;;;;;;;;;;5073011;28;20127;-76
2022/08/22 07:54:36;;;;;;;4.60;2.75;;;;;;;;;;5069429;28;20027;-75
2022/08/22 07:57:05;;;;;;;5.28;2.95;;;;;;;;;;5071050;28;20074;-76
2022/08/22 07:59:35;;;;;;;5.97;3.72;;;;;;;;;;5068533;28;20068;-76
2022/08/22 08:02:04;;;;;;;7.50;4.00;;;;;;;;;;5071753;28;20032;-74
2022/08/22 08:04:32;;;;;;;5.05;3.03;;;;;;;;;;5072900;28;20023;-76
2022/08/22 08:07:00;;;;;;;13.85;6.07;;;;;;;;;;5071959;28;20094;-76
2022/08/22 08:09:39;;;;;;;4.47;3.65;;;;;;;;;;5081855;28;20047;-78
2022/08/22 08:12:09;;;;;;;5.15;2.83;;;;;;;;;;5073501;28;20084;-75
2022/08/22 08:14:36;;;;;;;4.57;2.85;;;;;;;;;;5072789;28;20028;-76
2022/08/22 08:17:21;;;;;;;3.90;3.20;;;;;;;;;;5069355;28;20083;-74
2022/08/22 08:19:49;;;;;;;5.90;3.90;;;;;;;;;;5072689;28;20513;-75
2022/08/22 08:22:18;;;;;;;7.10;4.53;;;;;;;;;;5072644;28;20021;-77
2022/08/22 08:24:45;;;;;;;8.23;5.50;;;;;;;;;;5074816;28;20097;-76
2022/08/22 08:30:10;;;;;;;5.28;3.65;;;;;;;;;;5072700;28;20047;-78
2022/08/22 08:32:38;;;;;;;6.82;3.47;;;;;;;;;;5072820;28;20481;-76
2022/08/22 08:35:23;;;;;;;6.43;3.65;;;;;;;;;;5071379;28;20066;-79
2022/08/22 08:37:53;;;;;;;4.93;3.55;;;;;;;;;;5073850;28;20079;-80
2022/08/22 08:40:42;;;;;;;7.15;4.32;;;;;;;;;;5067363;28;20017;-79
2022/08/22 08:43:28;;;;;;;9.00;5.63;;;;;;;;;;5072504;28;20492;-76
2022/08/22 08:45:57;;;;;;;7.82;5.55;;;;;;;;;;5072330;28;20453;-73
2022/08/22 08:48:48;;;;;;;7.75;5.60;;;;;;;;;;5071733;28;20025;-77
2022/08/22 08:51:33;;;;;;;6.55;5.85;;;;;;;;;;5061188;28;20095;-77
2022/08/22 08:54:02;;;;;;;7.60;6.18;;;;;;;;;;5070241;28;20027;-77
2022/08/22 08:56:44;;;;;;;7.28;6.05;;;;;;;;;;5071860;28;20024;-79
2022/08/22 08:59:25;;;;;;;9.30;5.53;;;;;;;;;;5072105;28;20106;-75
2022/08/22 09:02:06;;;;;;;5.72;4.82;;;;;;;;;;5062789;28;20029;-79
2022/08/22 09:04:38;;;;;;;7.15;4.25;;;;;;;;;;5060709;28;20104;-78
2022/08/22 09:07:18;;;;;;;5.30;4.00;;;;;;;;;;5054240;28;20035;-76
2022/08/22 09:10:03;;;;;;;5.18;3.67;;;;;;;;;;5057071;28;20581;-78
2022/08/22 09:12:52;;;;;;;5.43;3.58;;;;;;;;;;5070836;28;20040;-78
2022/08/22 09:15:33;;;;;;;3.83;3.10;;;;;;;;;;5063730;28;20037;-77
2022/08/22 09:18:19;;;;;;;4.15;3.10;;;;;;;;;;5071970;28;20617;-79
2022/08/22 09:20:55;;;;;;;4.30;3.42;;;;;;;;;;5076655;28;20021;-76
2022/08/22 09:23:36;;;;;;;4.15;3.30;;;;;;;;;;5075313;28;20028;-78
2022/08/22 09:26:10;;;;;;;5.30;3.30;;;;;;;;;;5072345;28;20024;-78
2022/08/22 09:28:41;;;;;;;4.35;3.45;;;;;;;;;;5075373;28;20042;-76
2022/08/22 09:31:20;;;;;;;7.40;4.35;;;;;;;;;;5074801;28;20047;-78
2022/08/22 09:33:55;;;;;;;8.63;5.72;;;;;;;;;;5074922;28;20037;-78
2022/08/22 09:36:24;;;;;;;5.75;3.78;;;;;;;;;;5073927;28;20489;-78
2022/08/22 09:39:00;;;;;;;4.85;3.00;;;;;;;;;;5056167;28;20057;-74
2022/08/22 09:41:38;;;;;;;4.47;2.65;;;;;;;;;;5075880;28;20434;-78
2022/08/22 09:44:30;;;;;;;3.85;3.05;;;;;;;;;;5074646;28;20042;-78
2022/08/22 09:47:07;;;;;;;6.05;3.50;;;;;;;;;;5063566;28;20173;-78
2022/08/22 09:49:55;;;;;;;6.63;3.58;;;;;;;;;;5070133;28;20021;-78
2022/08/22 09:52:53;;;;;;;4.22;3.83;;;;;;;;;;5075553;28;20040;-75
2022/08/22 09:55:22;;;;;;;7.25;5.10;;;;;;;;;;5065828;28;20512;-78
2022/08/22 09:57:48;;;;;;;6.05;4.10;;;;;;;;;;5059716;28;20017;-80
2022/08/22 10:00:42;;;;;;;4.38;3.35;;;;;;;;;;5055988;28;20055;-79
2022/08/22 10:03:18;;;;;;;5.30;3.35;;;;;;;;;;4993160;28;20038;-78
2022/08/22 10:05:53;;;;;;;3.63;2.80;;;;;;;;;;4996366;28;20097;-77
2022/08/22 10:08:26;;;;;;;2.88;2.40;;;;;;;;;;4997616;28;20026;-76
2022/08/22 10:11:11;;;;;;;3.38;2.80;;;;;;;;;;5018327;28;20029;-76
2022/08/22 10:13:44;;;;;;;4.95;2.83;;;;;;;;;;5013559;28;20042;-75
2022/08/22 10:16:24;;;;;;;3.47;2.50;;;;;;;;;;5004741;28;20017;-78
2022/08/22 10:18:56;;;;;;;4.28;2.40;;;;;;;;;;5013080;28;20033;-78
2022/08/22 10:21:29;;;;;;;3.23;2.30;;;;;;;;;;5013239;28;20034;-77
2022/08/22 10:24:03;;;;;;;3.28;2.30;;;;;;;;;;5013366;28;20065;-77
2022/08/22 10:26:30;;;;;;;;;;;;;;;;;;4997385;28;20028;-78
2022/08/22 10:29:05;;;;;;;5.93;2.33;;;;;;;;;;4981921;28;19916;-77
2022/08/22 10:31:38;;;;;;;4.57;2.30;;;;;;;;;;4990773;28;20047;-77
2022/08/22 10:34:16;;;;;;;6.88;2.65;;;;;;;;;;4991755;28;20139;-75
2022/08/22 10:37:10;;;;;;;4.63;2.63;;;;;;;;;;4991916;28;20061;-71
2022/08/22 10:39:52;;;;;;;2.90;2.55;;;;;;;;;;5006407;28;20040;-74
2022/08/22 10:42:18;;;;;;;3.05;2.35;;;;;;;;;;5072028;28;20038;-71
2022/08/22 10:45:20;;;;;;;3.65;2.60;;;;;;;;;;5069910;28;20047;-72
2022/08/22 10:47:52;;;;;;;6.38;2.88;;;;;;;;;;5037191;28;20132;-71
2022/08/22 10:50:25;;;;;;;4.63;2.80;;;;;;;;;;5037912;28;20044;-71
2022/08/22 10:53:28;;;;;;;4.72;2.83;;;;;;;;;;5033168;28;20044;-75
2022/08/22 10:55:52;;;;;;;6.28;2.67;;;;;;;;;;5046105;28;20092;-70
2022/08/22 10:58:31;;;;;;;6.55;3.08;;;;;;;;;;5041011;28;20037;-70
2022/08/22 11:00:59;;;;;;;4.40;3.17;;;;;;;;;;5037503;28;20049;-70
2022/08/22 11:03:42;;;;;;;4.78;3.00;;;;;;;;;;5038139;28;20041;-72
2022/08/22 11:06:33;;;;;;;4.00;2.97;;;;;;;;;;5039725;28;20063;-70
2022/08/22 11:09:11;;;;;;;3.40;2.92;;;;;;;;;;5046505;28;20048;-73
2022/08/22 11:12:06;;;;;;;4.25;2.58;;;;;;;;;;5030072;28;20035;-74
2022/08/22 11:14:34;;;;;;;3.55;2.60;;;;;;;;;;5031432;28;20058;-74
2022/08/22 11:17:16;;;;;;;3.40;3.00;;;;;;;;;;5046945;28;20029;-72
2022/08/22 11:19:42;;;;;;;4.97;3.00;;;;;;;;;;5065611;28;20041;-77
2022/08/22 11:22:26;;;;;;;4.50;2.78;;;;;;;;;;5069666;28;20020;-79
2022/08/22 11:24:53;;;;;;;2.80;2.50;;;;;;;;;;5079015;28;20036;-76
2022/08/22 11:27:23;;;;;;;3.58;2.45;;;;;;;;;;5068562;28;20105;-76
2022/08/22 11:30:09;;;;;;;5.35;2.60;;;;;;;;;;5063346;28;20028;-73
2022/08/22 11:32:56;;;;;;;4.18;2.50;;;;;;;;;;5068284;28;20047;-77
2022/08/22 11:35:24;;;;;;;2.65;2.45;;;;;;;;;;5007441;28;20037;-74
2022/08/22 11:37:54;;;;;;;2.55;2.30;;;;;;;;;;5010753;28;20040;-73
2022/08/22 11:40:39;;;;;;;3.97;2.88;;;;;;;;;;5024216;28;20044;-72
2022/08/22 11:43:11;;;;;;;3.38;2.45;;;;;;;;;;5009474;28;20029;-70
2022/08/22 11:45:43;;;;;;;3.15;2.60;;;;;;;;;;5027802;28;20395;-74
2022/08/22 11:48:09;;;;;;;3.17;2.50;;;;;;;;;;5025718;28;20054;-77
2022/08/22 11:50:39;;;;;;;2.50;2.30;;;;;;;;;;5013079;28;20048;-76
2022/08/22 11:53:08;;;;;;;5.65;2.53;;;;;;;;;;5029875;28;20061;-83
2022/08/22 11:55:43;;;;;;;3.65;2.58;;;;;;;;;;5030220;28;20499;-71
2022/08/22 11:58:09;;;;;;;2.70;2.30;;;;;;;;;;5013175;28;20117;-72
2022/08/22 12:00:53;;;;;;;6.45;2.40;;;;;;;;;;5030535;28;20044;-72
2022/08/22 12:03:31;;;;;;;2.22;2.03;;;;;;;;;;5022294;28;20028;-82
2022/08/22 12:06:19;;;;;;;2.50;2.30;;;;;;;;;;5029833;28;20102;-71
2022/08/22 12:09:05;;;;;;;2.67;2.40;;;;;;;;;;5026708;28;20068;-80
2022/08/22 12:12:00;;;;;;;3.03;2.17;;;;;;;;;;5017031;28;20196;-77
2022/08/22 12:14:35;;;;;;;4.63;2.40;;;;;;;;;;4986199;28;20118;-82
2022/08/22 12:17:20;;;;;;;6.10;2.83;;;;;;;;;;4990483;28;20034;-80
2022/08/22 12:20:03;;;;;;;3.35;2.50;;;;;;;;;;4990805;28;20100;-82
2022/08/22 12:22:45;;;;;;;3.30;2.40;;;;;;;;;;4991203;28;20061;-79
2022/08/22 12:25:20;;;;;;;3.22;2.33;;;;;;;;;;4991551;28;20043;-71
2022/08/22 12:28:14;;;;;;;9.82;2.80;;;;;;;;;;4991377;28;20063;-82
2022/08/22 12:30:54;;;;;;;3.15;2.40;;;;;;;;;;4979570;28;20034;-71
2022/08/22 12:33:21;;;;;;;2.30;2.10;;;;;;;;;;4983179;28;20155;-83
2022/08/22 12:36:07;;;;;;;4.13;2.50;;;;;;;;;;4990979;28;20030;-72
2022/08/22 12:38:48;;;;;;;4.97;2.30;;;;;;;;;;4990632;28;20031;-74
2022/08/22 12:41:36;;;;;;;3.40;2.40;;;;;;;;;;4990716;28;20030;-77
2022/08/22 12:44:23;;;;;;;2.17;1.98;;;;;;;;;;4970354;28;20038;-78
2022/08/22 12:47:04;;;;;;;3.38;2.33;;;;;;;;;;4987500;28;20026;-80
2022/08/22 12:49:37;;;;;;;2.47;2.20;;;;;;;;;;4989233;28;20057;-83
2022/08/22 12:52:18;;;;;;;3.88;2.20;;;;;;;;;;5070146;28;20082;-82
2022/08/22 12:54:54;;;;;;;2.42;2.22;;;;;;;;;;5057720;28;20050;-74
2022/08/22 12:57:32;;;;;;;3.00;2.40;;;;;;;;;;5074492;28;20042;-75
2022/08/22 13:00:10;;;;;;;3.45;2.60;;;;;;;;;;5070386;28;20126;-83
2022/08/22 13:02:38;;;;;;;2.60;2.28;;;;;;;;;;5069268;28;20498;-84
2022/08/22 13:05:13;;;;;;;2.50;2.30;;;;;;;;;;5069272;28;20043;-82
2022/08/22 13:07:41;;;;;;;2.97;2.50;;;;;;;;;;5057687;28;20029;-78
2022/08/22 13:10:07;;;;;;;4.88;2.30;;;;;;;;;;5062727;28;20029;-78
2022/08/22 13:12:40;;;;;;;3.42;2.28;;;;;;;;;;5066309;28;20036;-79
2022/08/22 13:15:26;;;;;;;2.92;2.40;;;;;;;;;;5070216;28;20492;-78
2022/08/22 13:17:53;;;;;;;2.55;2.30;;;;;;;;;;5075270;28;20490;-78
2022/08/22 13:20:23;;;;;;;4.53;2.88;;;;;;;;;;5071966;28;20033;-75
2022/08/22 13:22:50;;;;;;;3.72;2.20;;;;;;;;;;5069065;28;20153;-79
2022/08/22 13:25:23;;;;;;;2.90;2.35;;;;;;;;;;5062263;28;20489;-76
2022/08/22 13:27:49;;;;;;;;;;;;;;;;;;5065791;28;20024;-75
2022/08/22 13:30:20;;;;;;;5.63;2.80;;;;;;;;;;5067161;28;19915;-79
2022/08/22 13:32:48;;;;;;;5.35;2.40;;;;;;;;;;5069104;28;20603;-80
2022/08/22 13:35:26;;;;;;;2.50;2.30;;;;;;;;;;5070127;28;20031;-77
2022/08/22 13:37:56;;;;;;;3.92;3.20;;;;;;;;;;5067762;28;20478;-78
2022/08/22 13:40:25;;;;;;;10.75;6.28;;;;;;;;;;5076967;28;20035;-81
2022/08/22 13:42:54;;;;;;;16.70;8.30;;;;;;;;;;5069441;28;20487;-79
2022/08/22 13:45:22;;;;;;;10.55;4.43;;;;;;;;;;5080704;28;20028;-80
2022/08/22 13:47:53;;;;;;;3.10;2.80;;;;;;;;;;5070944;28;20021;-87
2022/08/22 13:50:21;;;;;;;3.63;2.85;;;;;;;;;;5053948;28;20017;-78
2022/08/22 13:53:03;;;;;;;3.25;2.88;;;;;;;;;;5062099;28;20040;-77
2022/08/22 13:55:33;;;;;;;3.97;2.70;;;;;;;;;;5063616;28;20490;-80
2022/08/22 13:58:05;;;;;;;6.75;3.42;;;;;;;;;;5067437;28;20052;-84
2022/08/22 14:00:34;;;;;;;5.68;2.58;;;;;;;;;;5065355;28;20053;-77
2022/08/22 14:03:05;;;;;;;3.22;2.55;;;;;;;;;;5067071;28;20062;-76
2022/08/22 14:05:33;;;;;;;11.93;6.10;;;;;;;;;;5074625;28;20255;-75
2022/08/22 14:08:06;;;;;;;5.20;3.00;;;;;;;;;;5074839;28;20379;-77
2022/08/22 14:10:34;;;;;;;4.85;3.20;;;;;;;;;;5065722;28;20025;-83
2022/08/22 14:13:01;;;;;;;3.83;3.05;;;;;;;;;;5067131;28;20036;-74
2022/08/22 14:15:29;;;;;;;3.95;2.78;;;;;;;;;;5068241;28;20085;-74
2022/08/22 14:17:59;;;;;;;3.30;2.88;;;;;;;;;;5069506;28;20435;-78
2022/08/22 14:20:55;;;;;;;4.93;2.92;;;;;;;;;;5068947;28;20074;-86
2022/08/22 14:23:28;;;;;;;5.85;2.60;;;;;;;;;;4980044;28;20042;-82
2022/08/22 14:25:55;;;;;;;5.82;2.85;;;;;;;;;;5012296;28;20077;-76
2022/08/22 14:28:21;;;;;;;3.83;2.50;;;;;;;;;;5010716;28;20038;-83
2022/08/22 14:30:57;;;;;;;3.03;2.33;;;;;;;;;;5011958;28;20030;-84
2022/08/22 14:33:24;;;;;;;6.10;2.50;;;;;;;;;;5006979;28;20045;-87
2022/08/22 14:35:52;;;;;;;3.15;2.30;;;;;;;;;;5010908;28;20029;-77
2022/08/22 14:38:21;;;;;;;4.55;2.42;;;;;;;;;;5007214;28;20488;-80
2022/08/22 14:40:51;;;;;;;6.53;2.70;;;;;;;;;;5009457;28;20145;-75
2022/08/22 14:43:23;;;;;;;2.58;2.30;;;;;;;;;;5001617;28;20404;-79
2022/08/22 14:46:15;;;;;;;3.10;2.30;;;;;;;;;;5010200;28;20244;-82
2022/08/22 14:48:45;;;;;;;6.00;2.58;;;;;;;;;;5004029;28;20038;-85
2022/08/22 14:51:22;;;;;;;5.43;2.78;;;;;;;;;;5008788;28;20221;-80
2022/08/22 14:53:49;;;;;;;3.80;2.40;;;;;;;;;;4997758;28;20069;-82
2022/08/22 14:56:21;;;;;;;3.20;2.42;;;;;;;;;;4991030;28;20029;-86
2022/08/22 14:59:03;;;;;;;4.68;2.67;;;;;;;;;;5011473;28;20052;-74
2022/08/22 15:01:31;;;;;;;4.53;2.63;;;;;;;;;;5062205;28;20032;-76
2022/08/22 15:04:07;;;;;;;4.63;2.50;;;;;;;;;;5071452;28;20031;-85
2022/08/22 15:06:34;;;;;;;2.72;2.50;;;;;;;;;;5073006;28;20103;-82
2022/08/22 15:09:02;;;;;;;2.42;2.22;;;;;;;;;;5069475;28;20493;-79
2022/08/22 15:11:34;;;;;;;3.10;2.53;;;;;;;;;;5074105;28;20032;-76
2022/08/22 15:14:09;;;;;;;2.97;2.67;;;;;;;;;;5069935;28;20050;-78
2022/08/22 15:17:10;;;;;;;4.95;2.33;;;;;;;;;;5073647;28;20044;-77
2022/08/22 15:19:45;;;;;;;4.30;2.45;;;;;;;;;;5055037;28;20044;-77
2022/08/22 15:25:21;;;;;;;4.22;2.83;;;;;;;;;;5045046;28;20530;-77
2022/08/22 15:27:57;;;;;;;4.07;2.70;;;;;;;;;;5044652;28;20426;-78
2022/08/22 15:30:57;;;;;;;2.88;2.50;;;;;;;;;;5049799;28;21066;-74
2022/08/22 15:33:31;;;;;;;5.60;3.03;;;;;;;;;;5017088;28;20058;-71
2022/08/22 15:36:17;;;;;;;3.00;2.67;;;;;;;;;;5031654;28;20026;-75